Terminal Aerodrome Forecast
Issued by NWS

Home | Current Version | Previous Version | Text Only | Print | Product List | Glossary On
Versions: 1 2 3 4 5 6 7 8 9 10 11 12 13 14 15
262
FTUS43 KDTX 250526
TAFMBS
TAF
KMBS 250526Z 2506/2606 05012KT P6SM -SHRA BKN006 OVC012
     FM250800 04008KT 5SM -RA BR OVC005
     FM251100 05007KT 2SM -RA BR OVC003
     FM251800 06012KT 4SM -DZ BR OVC006
     FM260200 08007KT 2SM BR OVC012=

USA.gov is the U.S. government's official web portal to all federal, state and local government web resources and services.